createdAt,value
2017-12-27T00:01:38.828Z,987.56
2017-12-27T00:02:38.736Z,987.53
2017-12-27T00:04:32.013Z,987.47
2017-12-27T00:05:31.919Z,987.48
2017-12-27T00:07:26.171Z,987.39
2017-12-27T00:08:26.101Z,987.35
2017-12-27T00:10:19.390Z,987.32
2017-12-27T00:11:19.300Z,987.25
2017-12-27T00:13:12.554Z,987.22
2017-12-27T00:14:12.480Z,987.23
2017-12-27T00:16:06.864Z,987.16
2017-12-27T00:17:06.659Z,987.16
2017-12-27T00:18:59.909Z,987.13
2017-12-27T00:19:59.845Z,987.06
2017-12-27T00:21:53.111Z,986.98
2017-12-27T00:22:53.019Z,986.97
2017-12-27T00:24:47.394Z,986.91
2017-12-27T00:25:47.300Z,986.86
2017-12-27T00:27:40.667Z,986.80
2017-12-27T00:28:40.482Z,986.74
2017-12-27T00:30:33.752Z,986.63
2017-12-27T00:31:33.663Z,986.62
2017-12-27T00:33:26.917Z,986.58
2017-12-27T00:34:26.842Z,986.55
2017-12-27T00:36:20.114Z,986.49
2017-12-27T00:37:20.024Z,986.54
2017-12-27T00:39:13.266Z,986.53
2017-12-27T00:40:13.195Z,986.48
2017-12-27T00:42:06.465Z,986.39
2017-12-27T00:43:06.375Z,986.32
2017-12-27T00:44:59.646Z,986.34
2017-12-27T00:45:59.553Z,986.33
2017-12-27T00:47:52.809Z,986.26
2017-12-27T00:48:52.736Z,986.22
2017-12-27T00:50:46.007Z,986.06
2017-12-27T00:51:45.917Z,986.01
2017-12-27T00:53:39.171Z,986.02
2017-12-27T00:54:39.098Z,986.01
2017-12-27T00:56:33.392Z,986.03
2017-12-27T00:57:33.307Z,986.07
2017-12-27T00:59:26.548Z,986.06
2017-12-27T01:00:26.479Z,985.98
2017-12-27T01:02:19.744Z,986.04
2017-12-27T01:03:19.655Z,986.05
2017-12-27T01:05:13.039Z,985.94
2017-12-27T01:06:12.838Z,985.91
2017-12-27T01:08:06.092Z,985.95
2017-12-27T01:09:06.019Z,985.85
2017-12-27T01:11:00.293Z,985.85
2017-12-27T01:12:00.208Z,985.85
2017-12-27T01:13:54.458Z,985.84
2017-12-27T01:14:54.377Z,985.91
2017-12-27T01:16:47.649Z,985.82
2017-12-27T01:17:47.562Z,985.83
2017-12-27T01:19:40.922Z,985.76
2017-12-27T01:20:40.729Z,985.73
2017-12-27T01:22:34.000Z,985.71
2017-12-27T01:23:33.911Z,985.66
2017-12-27T01:25:27.184Z,985.56
2017-12-27T01:26:27.089Z,985.58
2017-12-27T01:28:20.344Z,985.57
2017-12-27T01:29:20.273Z,985.59
2017-12-27T01:31:13.655Z,985.52
2017-12-27T01:32:13.453Z,985.44
2017-12-27T01:34:06.705Z,985.46
2017-12-27T01:35:06.628Z,985.43
2017-12-27T01:36:59.904Z,985.41
2017-12-27T01:37:59.815Z,985.38
2017-12-27T01:39:53.061Z,985.34
2017-12-27T01:40:52.988Z,985.28
2017-12-27T01:42:46.261Z,985.28
2017-12-27T01:43:46.170Z,985.24
2017-12-27T01:45:40.052Z,985.17
2017-12-27T01:46:39.350Z,985.16
2017-12-27T01:48:32.616Z,985.19
2017-12-27T01:49:32.531Z,985.20
2017-12-27T01:51:25.805Z,985.14
2017-12-27T01:52:25.712Z,985.04
2017-12-27T01:54:18.968Z,984.99
2017-12-27T01:55:18.895Z,985.00
2017-12-27T01:57:12.167Z,984.97
2017-12-27T01:58:12.075Z,984.90
2017-12-27T02:00:05.379Z,984.86
2017-12-27T02:01:05.301Z,984.82
2017-12-27T02:02:58.585Z,984.75
2017-12-27T02:03:58.479Z,984.72
2017-12-27T02:05:52.757Z,984.66
2017-12-27T02:06:52.660Z,984.60
2017-12-27T02:08:46.914Z,984.52
2017-12-27T02:09:46.840Z,984.55
2017-12-27T02:11:41.111Z,984.54
2017-12-27T02:12:41.020Z,984.44
2017-12-27T02:14:34.274Z,984.35
2017-12-27T02:15:34.201Z,984.29
2017-12-27T02:17:27.467Z,984.27
2017-12-27T02:18:27.381Z,984.24
2017-12-27T02:20:20.632Z,984.19
2017-12-27T02:21:20.560Z,984.19
2017-12-27T02:23:13.948Z,984.17
2017-12-27T02:24:13.741Z,984.12
2017-12-27T02:26:07.013Z,984.12
2017-12-27T02:27:06.921Z,984.04
2017-12-27T02:29:00.182Z,983.92
2017-12-27T02:30:00.112Z,983.84
2017-12-27T02:31:53.390Z,983.81
2017-12-27T02:32:53.300Z,983.82
2017-12-27T02:34:46.551Z,983.80
2017-12-27T02:35:46.479Z,983.88
2017-12-27T02:37:39.865Z,983.86
2017-12-27T02:38:39.659Z,983.77
2017-12-27T02:40:32.920Z,983.79
2017-12-27T02:41:32.839Z,983.76
2017-12-27T02:43:26.109Z,983.68
2017-12-27T02:44:26.018Z,983.66
2017-12-27T02:46:19.481Z,983.58
2017-12-27T02:47:19.392Z,983.58
2017-12-27T02:49:12.633Z,983.50
2017-12-27T02:50:12.567Z,983.52
2017-12-27T02:52:05.835Z,983.42
2017-12-27T02:53:05.741Z,983.41
2017-12-27T02:54:59.000Z,983.35
2017-12-27T02:55:58.923Z,983.37
2017-12-27T02:57:52.193Z,983.29
2017-12-27T02:58:52.106Z,983.31
2017-12-27T03:00:45.468Z,983.26
2017-12-27T03:01:45.300Z,983.11
2017-12-27T03:03:38.575Z,983.18
2017-12-27T03:04:38.481Z,983.19
2017-12-27T03:06:31.748Z,983.14
2017-12-27T03:07:31.661Z,983.06
2017-12-27T03:09:24.905Z,983.08
2017-12-27T03:10:24.832Z,983.05
2017-12-27T03:12:18.103Z,982.99
2017-12-27T03:13:18.014Z,982.99
2017-12-27T03:15:12.376Z,982.88
2017-12-27T03:16:12.194Z,982.92
2017-12-27T03:18:05.466Z,982.91
2017-12-27T03:19:05.377Z,982.91
2017-12-27T03:20:58.627Z,982.89
2017-12-27T03:21:58.565Z,982.83
2017-12-27T03:23:51.829Z,982.81
2017-12-27T03:24:51.736Z,982.78
2017-12-27T03:26:45.123Z,982.71
2017-12-27T03:27:44.917Z,982.67
2017-12-27T03:29:38.168Z,982.55
2017-12-27T03:30:38.091Z,982.50
2017-12-27T03:32:31.391Z,982.51
2017-12-27T03:33:31.303Z,982.51
2017-12-27T03:35:24.554Z,982.39
2017-12-27T03:36:24.480Z,982.44
2017-12-27T03:38:17.752Z,982.29
2017-12-27T03:39:17.663Z,982.31
2017-12-27T03:41:10.916Z,982.37
2017-12-27T03:42:10.844Z,982.37
2017-12-27T03:44:04.116Z,982.32
2017-12-27T03:45:04.026Z,982.31
2017-12-27T03:46:57.402Z,982.25
2017-12-27T03:47:57.305Z,982.18
2017-12-27T03:49:50.668Z,982.13
2017-12-27T03:50:50.473Z,982.09
2017-12-27T03:52:43.748Z,982.03
2017-12-27T03:53:43.657Z,981.93
2017-12-27T03:55:36.914Z,981.96
2017-12-27T03:56:36.840Z,981.94
2017-12-27T03:58:30.116Z,981.90
2017-12-27T03:59:30.021Z,981.79
2017-12-27T04:01:23.370Z,981.73
2017-12-27T04:02:23.299Z,981.75
2017-12-27T04:04:17.579Z,981.71
2017-12-27T04:05:17.488Z,981.68
2017-12-27T04:07:10.760Z,981.61
2017-12-27T04:08:10.672Z,981.63
2017-12-27T04:10:03.916Z,981.58
2017-12-27T04:11:03.844Z,981.56
2017-12-27T04:12:57.112Z,981.50
2017-12-27T04:13:57.034Z,981.49
2017-12-27T04:15:50.392Z,981.47
2017-12-27T04:16:50.210Z,981.51
2017-12-27T04:18:43.483Z,981.47
2017-12-27T04:19:43.390Z,981.46
2017-12-27T04:21:37.671Z,981.43
2017-12-27T04:22:37.573Z,981.34
2017-12-27T04:24:30.829Z,981.35
2017-12-27T04:25:30.748Z,981.30
2017-12-27T04:27:24.027Z,981.30
2017-12-27T04:28:23.936Z,981.28
2017-12-27T04:30:17.189Z,981.16
2017-12-27T04:31:17.119Z,981.13
2017-12-27T04:33:10.401Z,981.01
2017-12-27T04:34:10.304Z,981.03
2017-12-27T04:36:04.563Z,980.95
2017-12-27T04:37:04.488Z,980.93
2017-12-27T04:38:57.757Z,980.84
2017-12-27T04:39:57.664Z,980.89
2017-12-27T04:41:50.950Z,980.73
2017-12-27T04:42:50.850Z,980.79
2017-12-27T04:44:44.106Z,980.70
2017-12-27T04:45:44.034Z,980.67
2017-12-27T04:47:37.389Z,980.61
2017-12-27T04:48:37.300Z,980.61
2017-12-27T04:50:30.558Z,980.55
2017-12-27T04:51:30.480Z,980.53
2017-12-27T04:53:24.757Z,980.47
2017-12-27T04:54:24.664Z,980.38
2017-12-27T04:56:18.032Z,980.34
2017-12-27T04:57:17.844Z,980.25
2017-12-27T04:59:11.121Z,980.23
2017-12-27T05:00:11.025Z,980.21
2017-12-27T05:02:04.305Z,980.21
2017-12-27T05:03:04.214Z,980.24
2017-12-27T05:04:57.466Z,980.22
2017-12-27T05:05:57.396Z,980.18
2017-12-27T05:07:51.668Z,980.19
2017-12-27T05:08:51.583Z,980.26
2017-12-27T05:10:44.942Z,980.21
2017-12-27T05:11:44.761Z,980.15
2017-12-27T05:13:38.035Z,980.13
2017-12-27T05:14:37.941Z,980.12
2017-12-27T05:16:31.194Z,980.05
2017-12-27T05:17:31.123Z,979.98
2017-12-27T05:19:24.393Z,979.98
2017-12-27T05:20:24.306Z,980.01
2017-12-27T05:22:17.576Z,980.02
2017-12-27T05:23:17.489Z,980.01
2017-12-27T05:25:10.743Z,979.97
2017-12-27T05:26:10.671Z,979.93
2017-12-27T05:28:03.944Z,979.97
2017-12-27T05:29:03.853Z,979.95
2017-12-27T05:30:57.109Z,979.92
2017-12-27T05:31:57.037Z,979.89
2017-12-27T05:33:50.310Z,979.84
2017-12-27T05:34:50.216Z,979.79
2017-12-27T05:36:43.473Z,979.79
2017-12-27T05:37:43.402Z,979.77
2017-12-27T05:39:36.672Z,979.79
2017-12-27T05:40:36.576Z,979.72
2017-12-27T05:42:29.850Z,979.64
2017-12-27T05:43:29.760Z,979.60
2017-12-27T05:45:23.013Z,979.55
2017-12-27T05:46:22.942Z,979.55
2017-12-27T05:48:16.216Z,979.61
2017-12-27T05:49:16.124Z,979.62
2017-12-27T05:51:09.378Z,979.51
2017-12-27T05:52:09.310Z,979.54
2017-12-27T05:54:02.588Z,979.56
2017-12-27T05:55:02.501Z,979.53
2017-12-27T05:56:55.746Z,979.54
2017-12-27T05:57:55.673Z,979.55
2017-12-27T05:59:48.945Z,979.48
2017-12-27T06:00:48.857Z,979.45
2017-12-27T06:02:42.241Z,979.48
2017-12-27T06:03:42.040Z,979.52
2017-12-27T06:05:35.374Z,979.43
2017-12-27T06:06:35.302Z,979.42
2017-12-27T06:08:28.573Z,979.41
2017-12-27T06:09:28.485Z,979.39
2017-12-27T06:11:21.740Z,979.34
2017-12-27T06:12:21.668Z,979.28
2017-12-27T06:14:14.928Z,979.29
2017-12-27T06:15:14.839Z,979.29
2017-12-27T06:17:08.081Z,979.21
2017-12-27T06:18:08.009Z,979.12
2017-12-27T06:20:01.271Z,979.18
2017-12-27T06:21:01.179Z,979.13
2017-12-27T06:22:54.446Z,979.13
2017-12-27T06:23:54.360Z,979.18
2017-12-27T06:25:48.718Z,979.14
2017-12-27T06:26:48.527Z,979.08
2017-12-27T06:28:41.793Z,979.08
2017-12-27T06:29:41.700Z,979.08
2017-12-27T06:31:34.941Z,979.08
2017-12-27T06:32:34.871Z,979.07
2017-12-27T06:34:28.134Z,978.99
2017-12-27T06:35:28.043Z,979.06
2017-12-27T06:37:21.408Z,979.12
2017-12-27T06:38:21.303Z,979.09
2017-12-27T06:40:14.569Z,979.11
2017-12-27T06:41:14.480Z,979.09
2017-12-27T06:43:07.743Z,979.00
2017-12-27T06:44:07.653Z,979.05
2017-12-27T06:46:00.900Z,979.02
2017-12-27T06:47:00.825Z,978.97
2017-12-27T06:48:54.209Z,978.93
2017-12-27T06:49:53.996Z,978.86
2017-12-27T06:51:47.240Z,978.82
2017-12-27T06:52:47.167Z,978.79
2017-12-27T06:54:40.431Z,978.76
2017-12-27T06:55:40.337Z,978.72
2017-12-27T06:57:33.579Z,978.66
2017-12-27T06:58:33.507Z,978.65
2017-12-27T07:00:26.770Z,978.60
2017-12-27T07:01:26.679Z,978.56
2017-12-27T07:03:19.938Z,978.57
2017-12-27T07:04:19.847Z,978.59
2017-12-27T07:06:13.092Z,978.52
2017-12-27T07:07:13.017Z,978.45
2017-12-27T07:09:06.285Z,978.60
2017-12-27T07:10:06.192Z,978.50
2017-12-27T07:11:59.430Z,978.59
2017-12-27T07:12:59.367Z,978.58
2017-12-27T07:14:52.628Z,978.55
2017-12-27T07:15:52.537Z,978.55
2017-12-27T07:17:45.781Z,978.53
2017-12-27T07:18:45.707Z,978.52
2017-12-27T07:20:38.972Z,978.46
2017-12-27T07:21:38.881Z,978.52
2017-12-27T07:23:32.143Z,978.52
2017-12-27T07:24:32.051Z,978.46
2017-12-27T07:26:25.372Z,978.43
2017-12-27T07:27:25.306Z,978.39
2017-12-27T07:29:18.565Z,978.45
2017-12-27T07:30:18.479Z,978.47
2017-12-27T07:32:11.723Z,978.46
2017-12-27T07:33:11.649Z,978.45
2017-12-27T07:35:04.915Z,978.43
2017-12-27T07:36:04.834Z,978.50
2017-12-27T07:37:58.194Z,978.41
2017-12-27T07:38:57.993Z,978.43
2017-12-27T07:40:51.260Z,978.40
2017-12-27T07:41:51.170Z,978.46
2017-12-27T07:43:44.434Z,978.44
2017-12-27T07:44:44.343Z,978.45
2017-12-27T07:46:37.588Z,978.38
2017-12-27T07:47:37.517Z,978.39
2017-12-27T07:49:30.915Z,978.42
2017-12-27T07:50:30.714Z,978.39
2017-12-27T07:52:23.963Z,978.43
2017-12-27T07:53:23.905Z,978.41
2017-12-27T07:55:17.158Z,978.35
2017-12-27T07:56:17.065Z,978.39
2017-12-27T07:58:10.323Z,978.42
2017-12-27T07:59:10.256Z,978.41
2017-12-27T08:01:03.521Z,978.31
2017-12-27T08:02:03.429Z,978.37
2017-12-27T08:03:56.687Z,978.30
2017-12-27T08:04:56.597Z,978.35
2017-12-27T08:06:49.842Z,978.35
2017-12-27T08:07:49.771Z,978.31
2017-12-27T08:09:43.037Z,978.29
2017-12-27T08:10:42.946Z,978.30
2017-12-27T08:12:36.189Z,978.29
2017-12-27T08:13:36.117Z,978.30
2017-12-27T08:15:29.401Z,978.25
2017-12-27T08:16:29.307Z,978.26
2017-12-27T08:18:22.552Z,978.32
2017-12-27T08:19:22.477Z,978.23
2017-12-27T08:21:15.739Z,978.24
2017-12-27T08:22:15.649Z,978.26
2017-12-27T08:24:08.910Z,978.20
2017-12-27T08:25:08.818Z,978.28
2017-12-27T08:27:02.184Z,978.26
2017-12-27T08:28:01.990Z,978.26
2017-12-27T08:29:55.262Z,978.26
2017-12-27T08:30:55.220Z,978.26
2017-12-27T08:32:48.422Z,978.24
2017-12-27T08:33:48.349Z,978.24
2017-12-27T08:35:41.614Z,978.20
2017-12-27T08:36:41.520Z,978.20
2017-12-27T08:38:34.889Z,978.22
2017-12-27T08:39:34.693Z,978.21
2017-12-27T08:41:27.956Z,978.17
2017-12-27T08:42:27.864Z,978.20
2017-12-27T08:44:21.128Z,978.18
2017-12-27T08:45:21.035Z,978.16
2017-12-27T08:47:14.280Z,978.19
2017-12-27T08:48:14.215Z,978.23
2017-12-27T08:50:07.478Z,978.21
2017-12-27T08:51:07.381Z,978.17
2017-12-27T08:53:00.628Z,978.12
2017-12-27T08:54:00.555Z,978.08
2017-12-27T08:55:53.813Z,978.13
2017-12-27T08:56:53.724Z,978.06
2017-12-27T08:58:46.977Z,978.00
2017-12-27T08:59:46.907Z,978.01
2017-12-27T09:01:40.179Z,978.00
2017-12-27T09:02:40.090Z,978.00
2017-12-27T09:04:33.400Z,977.90
2017-12-27T09:05:33.308Z,977.98
2017-12-27T09:07:26.559Z,977.97
2017-12-27T09:08:26.486Z,977.93
2017-12-27T09:10:19.761Z,977.87
2017-12-27T09:11:19.670Z,977.89
2017-12-27T09:13:12.918Z,977.83
2017-12-27T09:14:12.842Z,977.91
2017-12-27T09:16:06.118Z,977.91
2017-12-27T09:17:06.026Z,977.91
2017-12-27T09:18:59.271Z,978.02
2017-12-27T09:19:59.200Z,978.04
2017-12-27T09:21:52.471Z,978.04
2017-12-27T09:22:52.381Z,978.03
2017-12-27T09:24:45.166Z,978.04
2017-12-27T09:25:45.070Z,977.98
2017-12-27T09:27:38.330Z,978.03
2017-12-27T09:28:38.257Z,978.05
2017-12-27T09:30:31.527Z,978.05
2017-12-27T09:31:31.452Z,978.10
2017-12-27T09:33:24.727Z,978.09
2017-12-27T09:34:24.655Z,978.12
2017-12-27T09:36:17.925Z,978.06
2017-12-27T09:37:17.833Z,978.02
2017-12-27T09:39:11.090Z,978.09
2017-12-27T09:40:11.018Z,977.99
2017-12-27T09:42:04.293Z,978.03
2017-12-27T09:43:04.190Z,978.04
2017-12-27T09:44:57.458Z,978.01
2017-12-27T09:45:57.362Z,978.05
2017-12-27T09:47:50.610Z,977.97
2017-12-27T09:48:50.538Z,977.97
2017-12-27T09:50:43.808Z,977.88
2017-12-27T09:51:43.719Z,977.86
2017-12-27T09:53:37.003Z,977.85
2017-12-27T09:54:36.932Z,977.89
2017-12-27T09:56:30.200Z,977.91
2017-12-27T09:57:30.113Z,977.86
2017-12-27T09:59:23.358Z,977.80
2017-12-27T10:00:23.286Z,977.86
2017-12-27T10:02:16.549Z,977.79
2017-12-27T10:03:16.460Z,977.84
2017-12-27T10:05:09.724Z,977.81
2017-12-27T10:06:09.635Z,977.84
2017-12-27T10:08:02.880Z,977.78
2017-12-27T10:09:02.805Z,977.74
2017-12-27T10:10:56.074Z,977.79
2017-12-27T10:11:55.984Z,977.76
2017-12-27T10:13:49.229Z,977.84
2017-12-27T10:14:49.157Z,977.75
2017-12-27T10:16:42.433Z,977.78
2017-12-27T10:17:42.345Z,977.80
2017-12-27T10:19:35.591Z,977.83
2017-12-27T10:20:35.527Z,977.82
2017-12-27T10:22:28.786Z,977.82
2017-12-27T10:23:28.693Z,977.82
2017-12-27T10:25:21.960Z,977.74
2017-12-27T10:26:21.869Z,977.78
2017-12-27T10:28:15.117Z,977.81
2017-12-27T10:29:15.051Z,977.82
2017-12-27T10:31:08.314Z,977.69
2017-12-27T10:32:08.225Z,977.77
2017-12-27T10:34:01.479Z,977.71
2017-12-27T10:35:01.399Z,977.73
2017-12-27T10:36:54.667Z,977.61
2017-12-27T10:37:54.574Z,977.56
2017-12-27T10:39:47.821Z,977.52
2017-12-27T10:40:47.749Z,977.49
2017-12-27T10:42:41.014Z,977.50
2017-12-27T10:43:40.924Z,977.60
2017-12-27T10:45:34.191Z,977.60
2017-12-27T10:46:34.102Z,977.56
2017-12-27T10:48:27.349Z,977.52
2017-12-27T10:49:27.284Z,977.49
2017-12-27T10:51:20.542Z,977.50
2017-12-27T10:52:20.454Z,977.49
2017-12-27T10:54:13.703Z,977.45
2017-12-27T10:55:13.627Z,977.50
2017-12-27T10:57:06.897Z,977.44
2017-12-27T10:58:06.805Z,977.44
2017-12-27T11:00:00.060Z,977.50
2017-12-27T11:00:59.980Z,977.49
2017-12-27T11:02:53.247Z,977.42
2017-12-27T11:03:53.157Z,977.43
2017-12-27T11:05:46.426Z,977.41
2017-12-27T11:06:46.336Z,977.44
2017-12-27T11:08:39.583Z,977.39
2017-12-27T11:09:39.512Z,977.35
2017-12-27T11:11:32.790Z,977.41
2017-12-27T11:12:32.696Z,977.35
2017-12-27T11:14:25.943Z,977.34
2017-12-27T11:15:25.872Z,977.38
2017-12-27T11:17:19.250Z,977.40
2017-12-27T11:18:19.049Z,977.43
2017-12-27T11:20:12.297Z,977.41
2017-12-27T11:21:12.232Z,977.41
2017-12-27T11:23:05.505Z,977.40
2017-12-27T11:24:05.414Z,977.40
2017-12-27T11:25:58.679Z,977.35
2017-12-27T11:26:58.583Z,977.39
2017-12-27T11:28:51.834Z,977.38
2017-12-27T11:29:51.769Z,977.38
2017-12-27T11:31:45.035Z,977.35
2017-12-27T11:32:44.946Z,977.36
2017-12-27T11:34:38.190Z,977.27
2017-12-27T11:35:38.119Z,977.28
2017-12-27T11:37:31.397Z,977.25
2017-12-27T11:38:31.310Z,977.26
2017-12-27T11:40:24.064Z,977.35
2017-12-27T11:41:23.995Z,977.30
2017-12-27T11:43:17.378Z,977.31
2017-12-27T11:44:17.167Z,977.30
2017-12-27T11:46:10.444Z,977.22
2017-12-27T11:47:10.357Z,977.23
2017-12-27T11:49:03.722Z,977.17
2017-12-27T11:50:03.530Z,977.20
2017-12-27T11:51:56.803Z,977.19
2017-12-27T11:52:56.712Z,977.22
2017-12-27T11:54:49.963Z,977.20
2017-12-27T11:55:49.890Z,977.22
2017-12-27T11:57:43.153Z,977.20
2017-12-27T11:58:43.068Z,977.22
2017-12-27T12:00:36.309Z,977.17
2017-12-27T12:01:36.242Z,977.19
2017-12-27T12:03:29.511Z,977.13
2017-12-27T12:04:29.413Z,977.07
2017-12-27T12:06:22.798Z,977.08
2017-12-27T12:07:22.589Z,977.04
2017-12-27T12:09:15.836Z,977.03
2017-12-27T12:10:15.764Z,977.02
2017-12-27T12:12:09.045Z,977.05
2017-12-27T12:13:08.961Z,977.00
2017-12-27T12:15:02.209Z,977.03
2017-12-27T12:16:02.138Z,977.02
2017-12-27T12:17:55.399Z,977.07
2017-12-27T12:18:55.310Z,977.02
2017-12-27T12:20:48.726Z,976.93
2017-12-27T12:21:48.489Z,976.95
2017-12-27T12:23:41.765Z,976.91
2017-12-27T12:24:41.667Z,976.96
2017-12-27T12:26:34.935Z,976.98
2017-12-27T12:27:34.844Z,976.96
2017-12-27T12:29:28.204Z,976.97
2017-12-27T12:30:28.039Z,977.00
2017-12-27T12:32:21.397Z,976.99
2017-12-27T12:33:21.308Z,977.00
2017-12-27T12:35:14.554Z,977.00
2017-12-27T12:36:14.484Z,977.00
2017-12-27T12:38:07.751Z,976.95
2017-12-27T12:39:07.660Z,976.92
2017-12-27T12:41:01.023Z,976.94
2017-12-27T12:42:00.838Z,976.94
2017-12-27T12:43:54.102Z,976.91
2017-12-27T12:44:54.016Z,976.90
2017-12-27T12:46:47.283Z,976.93
2017-12-27T12:47:47.190Z,976.90
2017-12-27T12:49:40.441Z,976.84
2017-12-27T12:50:40.375Z,976.84
2017-12-27T12:52:33.758Z,976.78
2017-12-27T12:53:33.546Z,976.80
2017-12-27T12:55:26.794Z,976.76
2017-12-27T12:56:26.727Z,976.76
2017-12-27T12:58:19.987Z,976.77
2017-12-27T12:59:19.899Z,976.82
2017-12-27T13:01:13.149Z,976.76
2017-12-27T13:02:13.079Z,976.72
2017-12-27T13:04:06.466Z,976.71
2017-12-27T13:05:06.267Z,976.71
2017-12-27T13:06:59.533Z,976.68
2017-12-27T13:07:59.438Z,976.66
2017-12-27T13:09:52.812Z,976.60
2017-12-27T13:10:52.621Z,976.63
2017-12-27T13:12:45.886Z,976.58
2017-12-27T13:13:45.796Z,976.58
2017-12-27T13:15:39.051Z,976.56
2017-12-27T13:16:38.977Z,976.58
2017-12-27T13:18:32.243Z,976.54
2017-12-27T13:19:32.154Z,976.56
2017-12-27T13:21:25.524Z,976.54
2017-12-27T13:22:25.333Z,976.57
2017-12-27T13:24:18.598Z,976.60
2017-12-27T13:25:18.508Z,976.56
2017-12-27T13:27:11.775Z,976.58
2017-12-27T13:28:11.685Z,976.57
2017-12-27T13:30:05.055Z,976.49
2017-12-27T13:31:04.876Z,976.51
2017-12-27T13:32:58.253Z,976.55
2017-12-27T13:33:58.065Z,976.57
2017-12-27T13:35:51.426Z,976.53
2017-12-27T13:36:51.320Z,976.55
2017-12-27T13:38:44.701Z,976.51
2017-12-27T13:39:44.493Z,976.50
2017-12-27T13:41:37.740Z,976.57
2017-12-27T13:42:37.671Z,976.54
2017-12-27T13:44:30.937Z,976.54
2017-12-27T13:45:30.850Z,976.52
2017-12-27T13:47:24.113Z,976.49
2017-12-27T13:48:24.024Z,976.55
2017-12-27T13:50:17.272Z,976.56
2017-12-27T13:51:17.202Z,976.58
2017-12-27T13:53:10.476Z,976.56
2017-12-27T13:54:10.391Z,976.55
2017-12-27T13:56:03.757Z,976.58
2017-12-27T13:57:03.567Z,976.56
2017-12-27T13:58:56.834Z,976.56
2017-12-27T13:59:56.744Z,976.60
2017-12-27T14:01:49.993Z,976.62
2017-12-27T14:02:49.924Z,976.58
2017-12-27T14:04:43.198Z,976.60
2017-12-27T14:05:43.109Z,976.62
2017-12-27T14:07:36.382Z,976.64
2017-12-27T14:08:36.287Z,976.59
2017-12-27T14:10:29.548Z,976.62
2017-12-27T14:11:29.461Z,976.61
2017-12-27T14:13:22.730Z,976.61
2017-12-27T14:14:22.642Z,976.59
2017-12-27T14:16:15.891Z,976.62
2017-12-27T14:17:15.822Z,976.63
2017-12-27T14:19:09.106Z,976.69
2017-12-27T14:20:09.020Z,976.70
2017-12-27T14:22:02.269Z,976.71
2017-12-27T14:23:02.201Z,976.71
2017-12-27T14:24:55.465Z,976.69
2017-12-27T14:25:55.375Z,976.68
2017-12-27T14:27:48.646Z,976.64
2017-12-27T14:28:48.554Z,976.59
2017-12-27T14:30:41.812Z,976.57
2017-12-27T14:31:41.743Z,976.53
2017-12-27T14:33:35.010Z,976.57
2017-12-27T14:34:34.920Z,976.57
2017-12-27T14:36:29.171Z,976.61
2017-12-27T14:37:29.101Z,976.65
2017-12-27T14:39:22.369Z,976.72
2017-12-27T14:40:22.280Z,976.65
2017-12-27T14:42:15.539Z,976.64
2017-12-27T14:43:15.470Z,976.68
2017-12-27T14:45:08.747Z,976.72
2017-12-27T14:46:08.662Z,976.75
2017-12-27T14:48:01.937Z,976.77
2017-12-27T14:49:01.843Z,976.75
2017-12-27T14:50:55.209Z,976.75
2017-12-27T14:51:55.019Z,976.76
2017-12-27T14:53:48.404Z,976.79
2017-12-27T14:54:48.203Z,976.78
2017-12-27T14:56:41.450Z,976.83
2017-12-27T14:57:41.380Z,976.85
2017-12-27T14:59:34.766Z,976.85
2017-12-27T15:00:34.563Z,976.86
2017-12-27T15:02:27.824Z,976.85
2017-12-27T15:03:27.752Z,976.87
2017-12-27T15:05:21.137Z,976.84
2017-12-27T15:06:20.935Z,976.87
2017-12-27T15:08:14.199Z,976.86
2017-12-27T15:09:14.110Z,976.86
2017-12-27T15:11:07.477Z,976.85
2017-12-27T15:12:07.313Z,976.88
2017-12-27T15:14:00.576Z,976.93
2017-12-27T15:15:00.495Z,976.94
2017-12-27T15:16:53.738Z,976.96
2017-12-27T15:17:53.667Z,976.98
2017-12-27T15:19:46.937Z,976.96
2017-12-27T15:20:46.846Z,977.02
2017-12-27T15:22:40.098Z,976.98
2017-12-27T15:23:40.025Z,977.00
2017-12-27T15:25:33.418Z,976.98
2017-12-27T15:26:33.311Z,977.02
2017-12-27T15:28:26.577Z,977.02
2017-12-27T15:29:26.488Z,977.03
2017-12-27T15:31:19.742Z,977.04
2017-12-27T15:32:19.670Z,977.04
2017-12-27T15:34:12.937Z,977.02
2017-12-27T15:35:12.868Z,977.09
2017-12-27T15:37:06.104Z,977.10
2017-12-27T15:38:06.033Z,977.03
2017-12-27T15:39:59.402Z,977.08
2017-12-27T15:40:59.314Z,977.14
2017-12-27T15:42:52.562Z,977.12
2017-12-27T15:43:52.494Z,977.14
2017-12-27T15:45:45.878Z,977.15
2017-12-27T15:46:45.670Z,977.10
2017-12-27T15:48:38.938Z,977.14
2017-12-27T15:49:38.848Z,977.18
2017-12-27T15:51:32.107Z,977.17
2017-12-27T15:52:32.030Z,977.21
2017-12-27T15:54:25.470Z,977.26
2017-12-27T15:55:25.309Z,977.23
2017-12-27T15:57:18.562Z,977.29
2017-12-27T15:58:18.489Z,977.29
2017-12-27T16:00:11.760Z,977.28
2017-12-27T16:01:11.672Z,977.33
2017-12-27T16:03:05.540Z,977.31
2017-12-27T16:04:04.851Z,977.30
2017-12-27T16:05:58.117Z,977.30
2017-12-27T16:06:58.029Z,977.33
2017-12-27T16:08:51.398Z,977.35
2017-12-27T16:09:51.309Z,977.32
2017-12-27T16:11:44.677Z,977.33
2017-12-27T16:12:44.487Z,977.34
2017-12-27T16:14:37.755Z,977.34
2017-12-27T16:15:37.665Z,977.29
2017-12-27T16:17:31.033Z,977.28
2017-12-27T16:18:30.843Z,977.30
2017-12-27T16:20:24.108Z,977.25
2017-12-27T16:21:24.021Z,977.28
2017-12-27T16:23:17.268Z,977.28
2017-12-27T16:24:17.197Z,977.30
2017-12-27T16:26:10.465Z,977.30
2017-12-27T16:27:10.375Z,977.26
2017-12-27T16:29:03.642Z,977.25
2017-12-27T16:30:03.555Z,977.26
2017-12-27T16:31:56.801Z,977.22
2017-12-27T16:32:56.736Z,977.26
2017-12-27T16:34:50.006Z,977.30
2017-12-27T16:35:49.912Z,977.30
2017-12-27T16:37:43.160Z,977.28
2017-12-27T16:38:43.089Z,977.29
2017-12-27T16:40:36.359Z,977.32
2017-12-27T16:41:36.267Z,977.32
2017-12-27T16:43:29.522Z,977.35
2017-12-27T16:44:29.448Z,977.35
2017-12-27T16:46:22.713Z,977.37
2017-12-27T16:47:22.620Z,977.38
2017-12-27T16:49:15.889Z,977.34
2017-12-27T16:50:15.800Z,977.39
2017-12-27T16:52:09.048Z,977.38
2017-12-27T16:53:08.978Z,977.39
2017-12-27T16:55:02.247Z,977.39
2017-12-27T16:56:02.158Z,977.35
2017-12-27T16:57:55.407Z,977.36
2017-12-27T16:58:55.338Z,977.36
2017-12-27T17:00:48.602Z,977.40
2017-12-27T17:01:48.514Z,977.36
2017-12-27T17:03:41.882Z,977.39
2017-12-27T17:04:41.694Z,977.40
2017-12-27T17:06:34.985Z,977.41
2017-12-27T17:07:34.894Z,977.46
2017-12-27T17:09:28.159Z,977.44
2017-12-27T17:10:28.072Z,977.47
2017-12-27T17:12:21.387Z,977.48
2017-12-27T17:13:21.315Z,977.48
2017-12-27T17:15:14.584Z,977.47
2017-12-27T17:16:14.492Z,977.47
2017-12-27T17:18:07.739Z,977.46
2017-12-27T17:19:07.669Z,977.47
2017-12-27T17:21:01.050Z,977.45
2017-12-27T17:22:00.848Z,977.49
2017-12-27T17:23:54.092Z,977.56
2017-12-27T17:24:54.023Z,977.54
2017-12-27T17:26:47.290Z,977.60
2017-12-27T17:27:47.203Z,977.61
2017-12-27T17:29:40.480Z,977.62
2017-12-27T17:30:40.390Z,977.67
2017-12-27T17:32:33.638Z,977.70
2017-12-27T17:33:33.566Z,977.69
2017-12-27T17:35:26.832Z,977.71
2017-12-27T17:36:26.741Z,977.75
2017-12-27T17:38:19.993Z,977.77
2017-12-27T17:39:19.924Z,977.73
2017-12-27T17:41:13.191Z,977.75
2017-12-27T17:42:13.104Z,977.76
2017-12-27T17:44:06.352Z,977.75
2017-12-27T17:45:06.280Z,977.73
2017-12-27T17:46:59.553Z,977.77
2017-12-27T17:47:59.456Z,977.82
2017-12-27T17:49:52.723Z,977.82
2017-12-27T17:50:52.633Z,977.85
2017-12-27T17:52:45.881Z,977.88
2017-12-27T17:53:45.811Z,977.89
2017-12-27T17:55:39.089Z,977.92
2017-12-27T17:56:38.998Z,977.91
2017-12-27T17:58:32.372Z,977.97
2017-12-27T17:59:32.189Z,977.96
2017-12-27T18:01:25.527Z,978.00